Time;durP1;ratioP1;P1;durP2;ratioP2;P2;SDS_P1;SDS_P2;PMS_P1;PMS_P2;Temp;Humidity;BMP_temperature;BMP_pressure;BME280_temperature;BME280_humidity;BME280_pressure;Samples;Min_cycle;Max_cycle;Signal;HPM_P1;HPM_P2
2021/07/29 00:00:32;;;;;;;10.40;3.10;;;16.30;99.90;;;;;;5049592;28;25128;-65
2021/07/29 00:02:58;;;;;;;14.07;2.90;;;16.20;99.90;;;;;;5058664;28;25101;-65
2021/07/29 00:05:23;;;;;;;9.93;2.60;;;16.20;99.90;;;;;;5058863;28;25098;-67
2021/07/29 00:07:50;;;;;;;15.07;2.95;;;16.20;99.90;;;;;;5061666;28;25074;-66
2021/07/29 00:10:16;;;;;;;8.20;2.58;;;16.20;99.90;;;;;;5069452;28;25061;-66
2021/07/29 00:12:41;;;;;;;7.95;2.70;;;16.20;99.90;;;;;;5064156;28;25063;-66
2021/07/29 00:15:12;;;;;;;18.38;3.45;;;16.10;99.90;;;;;;5074730;28;25120;-66
2021/07/29 00:20:24;;;;;;;17.00;2.55;;;16.10;99.90;;;;;;5062657;28;25052;-67
2021/07/29 00:22:53;;;;;;;18.40;3.83;;;16.00;99.90;;;;;;5060480;28;25120;-68
2021/07/29 00:25:23;;;;;;;18.92;2.97;;;16.00;99.90;;;;;;5051419;28;25044;-68
2021/07/29 00:27:49;;;;;;;9.43;2.47;;;16.00;99.90;;;;;;5069806;28;25055;-71
2021/07/29 00:30:16;;;;;;;21.10;3.42;;;16.00;99.90;;;;;;5061660;28;25085;-63
2021/07/29 00:32:42;;;;;;;13.55;2.63;;;15.90;99.90;;;;;;5053211;28;25050;-72
2021/07/29 00:35:14;;;;;;;16.92;2.97;;;15.90;99.90;;;;;;5068607;28;25171;-68
2021/07/29 00:37:48;;;;;;;13.98;3.15;;;15.90;99.90;;;;;;5069337;28;25062;-66
2021/07/29 00:40:14;;;;;;;19.15;3.38;;;15.90;99.90;;;;;;5057818;28;25094;-66
2021/07/29 00:42:41;;;;;;;14.52;3.22;;;15.90;99.90;;;;;;5059992;28;25058;-66
2021/07/29 00:45:07;;;;;;;9.45;2.72;;;15.80;99.90;;;;;;5060989;28;25074;-66
2021/07/29 00:47:34;;;;;;;9.90;2.58;;;15.90;99.90;;;;;;5059209;28;25063;-65
2021/07/29 00:50:00;;;;;;;13.05;3.03;;;15.90;99.90;;;;;;5060375;28;25067;-66
2021/07/29 00:52:26;;;;;;;12.98;2.85;;;15.80;99.90;;;;;;5065476;28;25115;-65
2021/07/29 00:54:52;;;;;;;12.10;3.33;;;15.80;99.90;;;;;;5068509;28;25104;-65
2021/07/29 00:57:20;;;;;;;9.32;2.70;;;15.80;99.90;;;;;;5086070;28;25052;-66
2021/07/29 00:59:46;;;;;;;13.02;3.55;;;15.80;99.90;;;;;;5079184;28;25090;-66
2021/07/29 01:02:13;;;;;;;11.00;2.83;;;15.80;99.90;;;;;;5076693;28;25099;-64
2021/07/29 01:04:38;;;;;;;16.80;4.10;;;15.80;99.90;;;;;;5064533;28;25054;-67
2021/07/29 01:07:04;;;;;;;12.25;2.92;;;15.70;99.90;;;;;;5066085;28;25063;-66
2021/07/29 01:09:30;;;;;;;20.40;3.40;;;15.70;99.90;;;;;;5065438;28;25119;-67
2021/07/29 01:11:55;;;;;;;10.60;3.00;;;15.80;99.90;;;;;;5064040;28;25141;-65
2021/07/29 01:14:21;;;;;;;18.42;4.10;;;15.80;99.90;;;;;;5057271;28;25071;-66
2021/07/29 01:16:47;;;;;;;15.70;3.03;;;15.80;99.90;;;;;;5072038;28;25098;-66
2021/07/29 01:19:13;;;;;;;11.13;3.10;;;15.70;99.90;;;;;;5071883;28;25096;-67
2021/07/29 01:21:40;;;;;;;13.90;3.53;;;15.70;99.90;;;;;;5066292;28;25077;-67
2021/07/29 01:24:06;;;;;;;11.52;3.58;;;15.70;99.90;;;;;;5059761;28;25149;-66
2021/07/29 01:26:32;;;;;;;12.98;3.50;;;15.70;99.90;;;;;;5067905;28;25179;-66
2021/07/29 01:28:59;;;;;;;21.90;3.60;;;15.80;99.90;;;;;;5054027;28;25098;-64
2021/07/29 01:31:28;;;;;;;12.85;3.25;;;15.70;99.90;;;;;;5073042;28;25099;-69
2021/07/29 01:33:55;;;;;;;21.52;2.90;;;15.70;99.90;;;;;;5070195;28;25138;-67
2021/07/29 01:36:21;;;;;;;18.85;3.45;;;15.70;99.90;;;;;;5066167;28;25080;-66
2021/07/29 01:38:47;;;;;;;17.77;4.68;;;15.70;99.90;;;;;;5061190;28;25076;-66
2021/07/29 01:41:12;;;;;;;18.33;3.55;;;15.70;99.90;;;;;;5075072;28;25158;-67
2021/07/29 01:43:38;;;;;;;17.60;3.30;;;15.60;99.90;;;;;;5060385;28;25069;-66
2021/07/29 01:46:04;;;;;;;23.92;3.40;;;15.60;99.90;;;;;;5063049;28;25061;-66
2021/07/29 01:48:31;;;;;;;19.70;3.83;;;15.60;99.90;;;;;;5069274;28;25061;-67
2021/07/29 01:50:57;;;;;;;16.77;2.90;;;15.60;99.90;;;;;;5070109;28;25062;-66
2021/07/29 01:53:23;;;;;;;14.00;3.10;;;15.70;99.90;;;;;;5068451;28;25121;-65
2021/07/29 01:55:49;;;;;;;17.35;3.28;;;15.70;99.90;;;;;;5074425;28;25131;-67
2021/07/29 01:58:16;;;;;;;17.00;3.28;;;15.70;99.90;;;;;;5069355;28;25093;-65
2021/07/29 02:00:44;;;;;;;16.77;3.65;;;15.80;99.90;;;;;;5063339;28;25166;-65
2021/07/29 02:03:10;;;;;;;26.92;4.28;;;15.80;99.90;;;;;;5065054;28;25127;-66
2021/07/29 02:05:35;;;;;;;16.10;3.40;;;15.80;99.90;;;;;;5062697;28;25146;-66
2021/07/29 02:08:01;;;;;;;15.18;4.43;;;15.70;99.90;;;;;;5061961;28;25063;-66
2021/07/29 02:10:27;;;;;;;16.45;3.88;;;15.60;99.90;;;;;;5062392;28;25122;-65
2021/07/29 02:12:57;;;;;;;18.85;4.13;;;15.50;99.90;;;;;;5066205;28;25056;-65
2021/07/29 02:15:23;;;;;;;20.15;4.43;;;15.50;99.90;;;;;;5062814;28;25060;-65
2021/07/29 02:17:48;;;;;;;16.90;3.72;;;15.40;99.90;;;;;;5056975;28;25082;-66
2021/07/29 02:20:15;;;;;;;20.88;3.83;;;15.30;99.90;;;;;;5054207;28;25060;-65
2021/07/29 02:22:41;;;;;;;16.52;4.55;;;15.30;99.90;;;;;;5059194;28;25073;-65
2021/07/29 02:25:08;;;;;;;19.70;4.53;;;15.20;99.90;;;;;;5067281;28;25066;-66
2021/07/29 02:27:34;;;;;;;15.60;4.28;;;15.20;99.90;;;;;;5067271;28;25161;-66
2021/07/29 02:30:00;;;;;;;22.00;4.32;;;15.30;99.90;;;;;;5066313;28;25070;-65
2021/07/29 02:32:27;;;;;;;18.42;4.70;;;15.20;99.90;;;;;;5067553;28;25064;-66
2021/07/29 02:34:52;;;;;;;17.95;4.28;;;15.20;99.90;;;;;;5064908;28;25078;-64
2021/07/29 02:37:21;;;;;;;24.48;5.38;;;15.20;99.90;;;;;;5062632;28;25078;-66
2021/07/29 02:39:47;;;;;;;24.48;5.45;;;15.20;99.90;;;;;;5067887;28;25060;-65
2021/07/29 02:42:13;;;;;;;21.42;4.80;;;15.20;99.90;;;;;;5068167;28;25065;-65
2021/07/29 02:44:39;;;;;;;23.38;5.35;;;15.20;99.90;;;;;;5062821;28;25069;-66
2021/07/29 02:47:05;;;;;;;24.75;4.68;;;15.20;99.90;;;;;;5066980;28;25073;-65
2021/07/29 02:49:31;;;;;;;22.83;5.20;;;15.20;99.90;;;;;;5069100;28;25084;-64
2021/07/29 02:51:56;;;;;;;23.17;4.40;;;15.30;99.90;;;;;;5065868;28;25087;-66
2021/07/29 02:54:22;;;;;;;18.17;5.05;;;15.30;99.90;;;;;;5052399;28;25096;-65
2021/07/29 02:56:47;;;;;;;28.48;4.40;;;15.30;99.90;;;;;;5067815;28;25079;-64
2021/07/29 02:59:13;;;;;;;24.48;5.20;;;15.40;99.90;;;;;;5058914;28;25159;-66
2021/07/29 03:01:38;;;;;;;31.17;5.43;;;15.30;99.90;;;;;;5050066;28;25063;-64
2021/07/29 03:04:04;;;;;;;23.98;5.00;;;15.30;99.90;;;;;;5069037;28;25098;-65
2021/07/29 03:06:30;;;;;;;20.48;4.32;;;15.30;99.90;;;;;;5060394;28;25159;-64
2021/07/29 03:08:58;;;;;;;14.48;3.70;;;15.10;99.90;;;;;;5050539;28;25074;-64
2021/07/29 03:11:23;;;;;;;13.35;3.72;;;15.10;99.90;;;;;;5063251;28;25118;-64
2021/07/29 03:13:49;;;;;;;12.35;3.60;;;15.10;99.90;;;;;;5069599;28;25139;-63
2021/07/29 03:16:14;;;;;;;23.30;4.80;;;15.20;99.90;;;;;;5068735;28;25077;-65
2021/07/29 03:18:40;;;;;;;27.75;5.03;;;15.10;99.90;;;;;;5067298;28;25142;-65
2021/07/29 03:21:07;;;;;;;32.72;5.22;;;15.10;99.90;;;;;;5062638;28;25069;-65
2021/07/29 03:23:33;;;;;;;20.35;4.20;;;15.10;99.90;;;;;;5066579;28;25067;-64
2021/07/29 03:25:58;;;;;;;15.70;4.55;;;15.10;99.90;;;;;;5061428;28;25057;-65
2021/07/29 03:28:24;;;;;;;16.05;4.82;;;15.10;99.90;;;;;;5055581;28;25059;-66
2021/07/29 03:30:51;;;;;;;18.42;4.78;;;15.10;99.90;;;;;;5064934;28;25140;-66
2021/07/29 03:33:17;;;;;;;20.35;4.45;;;15.10;99.90;;;;;;5057484;28;25054;-66
2021/07/29 03:35:42;;;;;;;24.92;5.15;;;15.10;99.90;;;;;;5064688;28;25048;-65
2021/07/29 03:38:09;;;;;;;23.98;4.28;;;15.10;99.90;;;;;;5054089;28;25125;-66
2021/07/29 03:40:36;;;;;;;28.23;4.97;;;15.00;99.90;;;;;;5058805;28;25060;-64
2021/07/29 03:43:02;;;;;;;20.48;4.45;;;15.00;99.90;;;;;;5060014;28;25049;-67
2021/07/29 03:45:32;;;;;;;20.45;4.35;;;15.10;99.90;;;;;;5059144;28;25071;-65
2021/07/29 03:47:59;;;;;;;21.90;3.40;;;15.10;99.90;;;;;;5059256;28;25088;-66
2021/07/29 03:50:25;;;;;;;21.80;5.15;;;15.10;99.90;;;;;;5067137;28;25143;-65
2021/07/29 03:52:51;;;;;;;25.27;3.88;;;15.10;99.90;;;;;;5059792;28;25055;-65
2021/07/29 03:55:16;;;;;;;21.95;4.68;;;15.10;99.90;;;;;;5066545;28;25060;-66
2021/07/29 03:57:42;;;;;;;17.50;4.00;;;15.00;99.90;;;;;;5063515;28;25054;-64
2021/07/29 04:00:09;;;;;;;18.67;4.32;;;15.00;99.90;;;;;;5062136;28;25046;-66
2021/07/29 04:02:35;;;;;;;19.13;3.72;;;15.10;99.90;;;;;;5065605;28;25088;-64
2021/07/29 04:05:01;;;;;;;16.65;4.63;;;15.10;99.90;;;;;;5066861;28;25102;-64
2021/07/29 04:07:27;;;;;;;20.15;3.97;;;15.10;99.90;;;;;;5064391;28;25063;-66
2021/07/29 04:09:53;;;;;;;26.35;4.65;;;15.10;99.90;;;;;;5066442;28;25176;-65
2021/07/29 04:12:19;;;;;;;23.55;4.13;;;15.10;99.90;;;;;;5063732;28;25094;-64
2021/07/29 04:14:45;;;;;;;17.52;4.32;;;15.10;99.90;;;;;;5062241;28;25108;-66
2021/07/29 04:17:11;;;;;;;30.63;4.75;;;15.10;99.90;;;;;;5063955;28;25113;-65
2021/07/29 04:19:37;;;;;;;19.70;4.28;;;15.10;99.90;;;;;;5060040;28;25146;-64
2021/07/29 04:22:06;;;;;;;22.42;4.32;;;15.10;99.90;;;;;;5060426;28;25107;-65
2021/07/29 04:24:33;;;;;;;23.15;4.82;;;15.20;99.90;;;;;;5054842;28;25078;-66
2021/07/29 04:27:00;;;;;;;21.67;4.47;;;15.10;99.90;;;;;;5054227;28;25126;-65
2021/07/29 04:29:27;;;;;;;20.67;4.32;;;15.10;99.90;;;;;;5060425;28;25150;-66
2021/07/29 04:31:53;;;;;;;22.20;4.45;;;15.10;99.90;;;;;;5056448;28;25054;-66
2021/07/29 04:34:20;;;;;;;18.50;3.83;;;15.10;99.90;;;;;;5071906;28;25065;-66
2021/07/29 04:36:46;;;;;;;17.73;3.40;;;15.10;99.90;;;;;;5075639;28;25092;-65
2021/07/29 04:39:13;;;;;;;19.33;3.97;;;15.10;99.90;;;;;;5069010;28;25082;-65
2021/07/29 04:41:40;;;;;;;14.48;3.38;;;15.20;99.90;;;;;;5065259;28;25072;-68
2021/07/29 04:44:11;;;;;;;15.43;3.08;;;15.30;99.90;;;;;;5041565;28;25057;-65
2021/07/29 04:46:37;;;;;;;18.17;4.22;;;15.20;99.90;;;;;;5065104;28;25080;-65
2021/07/29 04:49:04;;;;;;;16.65;3.30;;;15.30;99.90;;;;;;5066459;28;25331;-64
2021/07/29 04:51:32;;;;;;;13.05;2.90;;;15.20;99.90;;;;;;5065615;28;25087;-66
2021/07/29 04:53:58;;;;;;;16.25;3.20;;;15.30;99.90;;;;;;5062836;28;25060;-65
2021/07/29 04:56:23;;;;;;;18.67;2.85;;;15.20;99.90;;;;;;5059565;28;25068;-64
2021/07/29 04:58:49;;;;;;;14.27;2.75;;;15.20;99.90;;;;;;5056218;28;25118;-67
2021/07/29 05:01:16;;;;;;;17.10;3.28;;;15.20;99.90;;;;;;5070594;28;25069;-67
2021/07/29 05:03:42;;;;;;;15.68;3.22;;;15.10;99.90;;;;;;5075343;28;25082;-66
2021/07/29 05:06:08;;;;;;;21.52;3.50;;;15.10;99.90;;;;;;5056194;28;25123;-65
2021/07/29 05:08:35;;;;;;;12.52;2.90;;;15.10;99.90;;;;;;5070675;28;25144;-64
2021/07/29 05:11:05;;;;;;;15.10;3.05;;;15.20;99.90;;;;;;5056246;28;25049;-65
2021/07/29 05:13:31;;;;;;;13.88;3.75;;;15.20;99.90;;;;;;5060806;28;25070;-64
2021/07/29 05:15:58;;;;;;;18.67;4.70;;;15.20;99.90;;;;;;5066989;28;25063;-67
2021/07/29 05:18:23;;;;;;;23.40;4.55;;;15.20;99.90;;;;;;5046042;28;25126;-65
2021/07/29 05:20:49;;;;;;;16.85;4.35;;;15.20;99.90;;;;;;5059503;28;25115;-66
2021/07/29 05:23:14;;;;;;;19.52;4.65;;;15.30;99.90;;;;;;5050489;28;25063;-65
2021/07/29 05:25:40;;;;;;;21.85;4.32;;;15.30;99.90;;;;;;5058413;28;25087;-65
2021/07/29 05:28:06;;;;;;;19.40;4.45;;;15.30;99.90;;;;;;5061127;28;25059;-68
2021/07/29 05:30:35;;;;;;;17.23;3.55;;;15.40;99.90;;;;;;5073085;28;25121;-65
2021/07/29 05:33:01;;;;;;;25.45;4.90;;;15.40;99.90;;;;;;5068580;28;25130;-65
2021/07/29 05:35:26;;;;;;;12.68;3.22;;;15.50;99.90;;;;;;5070662;28;25079;-66
2021/07/29 05:37:52;;;;;;;18.55;4.47;;;15.60;99.90;;;;;;5060377;28;25070;-65
2021/07/29 05:40:18;;;;;;;28.17;5.13;;;15.60;99.90;;;;;;5064300;28;25070;-65
2021/07/29 05:42:43;;;;;;;19.92;3.92;;;15.70;99.90;;;;;;5065182;28;25128;-65
2021/07/29 05:45:09;;;;;;;23.48;4.75;;;15.70;99.90;;;;;;5052841;28;25074;-65
2021/07/29 05:47:37;;;;;;;23.45;4.53;;;15.80;99.90;;;;;;5066103;28;25136;-64
2021/07/29 05:50:04;;;;;;;17.60;4.25;;;15.70;99.90;;;;;;5059702;28;25090;-65
2021/07/29 05:52:29;;;;;;;21.23;4.78;;;15.70;99.90;;;;;;5070475;28;25067;-65
2021/07/29 05:54:55;;;;;;;20.27;4.60;;;15.70;99.90;;;;;;5061176;28;25082;-65
2021/07/29 05:57:21;;;;;;;21.25;4.20;;;15.80;99.90;;;;;;5078966;28;25068;-64
2021/07/29 05:59:46;;;;;;;25.33;3.75;;;15.90;99.90;;;;;;5066538;28;25131;-66
2021/07/29 06:02:12;;;;;;;20.63;3.65;;;15.80;99.90;;;;;;5064313;28;25131;-68
2021/07/29 06:04:37;;;;;;;25.80;4.00;;;15.80;99.90;;;;;;5073275;28;25097;-65
2021/07/29 06:07:03;;;;;;;21.88;4.32;;;15.80;99.90;;;;;;5069859;28;25057;-66
2021/07/29 06:09:29;;;;;;;20.55;3.63;;;15.80;99.90;;;;;;5057051;28;25489;-67
2021/07/29 06:11:54;;;;;;;13.48;3.53;;;15.80;99.90;;;;;;5063517;28;25074;-65
2021/07/29 06:14:20;;;;;;;20.60;3.83;;;15.90;99.90;;;;;;5053547;28;25078;-65
2021/07/29 06:16:45;;;;;;;13.45;3.20;;;16.00;99.90;;;;;;5065651;28;25142;-67
2021/07/29 06:19:29;;;;;;;22.40;3.70;;;16.00;99.90;;;;;;5063057;28;25082;-66
2021/07/29 06:21:58;;;;;;;20.60;3.30;;;16.10;99.90;;;;;;5073479;28;25165;-66
2021/07/29 06:24:27;;;;;;;18.52;3.55;;;16.10;99.90;;;;;;5070345;28;25105;-65
2021/07/29 06:26:53;;;;;;;19.30;4.57;;;16.10;99.90;;;;;;5068262;28;25089;-65
2021/07/29 06:29:19;;;;;;;17.70;4.25;;;16.20;99.90;;;;;;5059314;28;25127;-65
2021/07/29 06:31:45;;;;;;;29.65;3.63;;;16.40;99.90;;;;;;5081744;28;25083;-66
2021/07/29 06:34:11;;;;;;;17.75;3.53;;;16.60;99.90;;;;;;5069575;28;25101;-65
2021/07/29 06:36:37;;;;;;;16.60;3.33;;;16.80;99.90;;;;;;5069734;28;25148;-66
2021/07/29 06:39:03;;;;;;;19.15;3.50;;;16.80;99.90;;;;;;5079896;28;25138;-64
2021/07/29 06:41:29;;;;;;;16.25;3.25;;;16.80;99.90;;;;;;5066631;28;25128;-65
2021/07/29 06:43:54;;;;;;;23.48;3.80;;;16.90;99.90;;;;;;5065248;28;25154;-65
2021/07/29 06:46:20;;;;;;;18.00;3.83;;;17.00;99.90;;;;;;5062943;28;25062;-66
2021/07/29 06:48:48;;;;;;;18.80;3.72;;;16.90;99.90;;;;;;5068596;28;25071;-65
2021/07/29 06:51:14;;;;;;;18.50;4.10;;;16.80;99.90;;;;;;5073050;28;25080;-66
2021/07/29 06:53:39;;;;;;;19.92;3.97;;;16.90;99.90;;;;;;5077475;28;25061;-66
2021/07/29 06:56:07;;;;;;;23.83;3.65;;;16.80;99.90;;;;;;5064900;28;25053;-65
2021/07/29 06:58:34;;;;;;;16.55;3.80;;;16.80;99.90;;;;;;5069495;28;25130;-66
2021/07/29 07:01:04;;;;;;;13.82;3.20;;;16.70;99.90;;;;;;5076865;28;25062;-65
2021/07/29 07:03:30;;;;;;;26.95;4.35;;;16.90;99.90;;;;;;5070118;28;25132;-65
2021/07/29 07:06:06;;;;;;;20.52;3.78;;;17.10;99.90;;;;;;5077257;28;25111;-65
2021/07/29 07:08:32;;;;;;;17.45;3.80;;;17.10;99.90;;;;;;5074933;28;25075;-65
2021/07/29 07:10:59;;;;;;;15.00;2.75;;;17.00;99.90;;;;;;5067638;28;25077;-65
2021/07/29 07:13:25;;;;;;;20.02;3.75;;;17.20;99.90;;;;;;5077089;28;25075;-65
2021/07/29 07:15:51;;;;;;;27.73;4.10;;;17.30;99.90;;;;;;5069652;28;25077;-65
2021/07/29 07:18:17;;;;;;;19.90;3.90;;;17.20;99.90;;;;;;5073096;28;25138;-66
2021/07/29 07:20:42;;;;;;;20.75;4.38;;;17.20;99.90;;;;;;5074288;28;25059;-66
2021/07/29 07:23:08;;;;;;;15.90;3.25;;;17.10;99.90;;;;;;5069023;28;25130;-65
2021/07/29 07:25:37;;;;;;;16.17;3.80;;;17.10;99.90;;;;;;5074037;28;25180;-66
2021/07/29 07:28:04;;;;;;;16.30;3.70;;;17.10;99.90;;;;;;5054659;28;25065;-69
2021/07/29 07:30:31;;;;;;;13.52;3.67;;;17.10;99.90;;;;;;5072827;28;25065;-65
2021/07/29 07:32:58;;;;;;;17.00;3.83;;;17.30;99.90;;;;;;5089977;28;25080;-67
2021/07/29 07:35:24;;;;;;;8.90;2.67;;;17.40;99.90;;;;;;5074564;28;25078;-66
2021/07/29 07:37:52;;;;;;;14.98;2.92;;;17.40;99.90;;;;;;5062887;28;25063;-66
2021/07/29 07:40:17;;;;;;;20.10;3.55;;;17.50;99.90;;;;;;5065774;28;25077;-65
2021/07/29 07:42:43;;;;;;;20.23;3.50;;;17.60;99.90;;;;;;5067298;28;25150;-65
2021/07/29 07:45:09;;;;;;;24.23;3.38;;;17.60;99.90;;;;;;5061815;28;25075;-65
2021/07/29 07:47:35;;;;;;;15.32;3.53;;;17.60;99.90;;;;;;5079922;28;25091;-65
2021/07/29 07:50:02;;;;;;;13.35;2.85;;;17.50;99.90;;;;;;5077007;28;25055;-66
2021/07/29 07:52:28;;;;;;;14.93;2.97;;;17.50;99.90;;;;;;5073237;28;25103;-64
2021/07/29 07:54:53;;;;;;;15.27;3.38;;;17.60;99.90;;;;;;5075075;28;25183;-66
2021/07/29 07:57:19;;;;;;;19.98;3.80;;;17.60;99.90;;;;;;5069670;28;25097;-67
2021/07/29 07:59:45;;;;;;;18.52;3.03;;;17.60;99.90;;;;;;5071632;28;25059;-66
2021/07/29 08:02:12;;;;;;;10.23;3.30;;;17.60;99.90;;;;;;5076794;28;25121;-65
2021/07/29 08:04:39;;;;;;;15.15;2.80;;;17.60;99.90;;;;;;5067980;28;25166;-65
2021/07/29 08:07:05;;;;;;;22.15;3.25;;;17.80;99.90;;;;;;5068742;28;25079;-65
2021/07/29 08:09:31;;;;;;;16.80;3.10;;;17.70;99.90;;;;;;5068821;28;25075;-66
2021/07/29 08:11:57;;;;;;;17.90;3.25;;;17.70;99.90;;;;;;5075737;28;25076;-68
2021/07/29 08:14:22;;;;;;;13.80;2.80;;;17.70;99.90;;;;;;5069634;28;25125;-65
2021/07/29 08:16:48;;;;;;;8.65;2.65;;;17.90;99.90;;;;;;5067842;28;25094;-67
2021/07/29 08:19:13;;;;;;;17.45;3.83;;;18.30;99.90;;;;;;5067357;28;25153;-66
2021/07/29 08:21:39;;;;;;;9.90;2.80;;;18.40;99.90;;;;;;5068534;28;25131;-65
2021/07/29 08:24:05;;;;;;;26.05;3.42;;;18.40;99.90;;;;;;5067824;28;25063;-65
2021/07/29 08:26:30;;;;;;;11.77;2.90;;;18.40;99.90;;;;;;5064768;28;25073;-65
2021/07/29 08:28:57;;;;;;;13.73;3.42;;;18.50;99.90;;;;;;5073421;28;25075;-67
2021/07/29 08:31:23;;;;;;;19.00;3.25;;;18.50;99.90;;;;;;5073136;28;25058;-65
2021/07/29 08:33:49;;;;;;;18.75;3.13;;;18.40;99.90;;;;;;5075703;28;25080;-67
2021/07/29 08:36:18;;;;;;;14.93;3.22;;;18.40;99.90;;;;;;5089399;28;25082;-66
2021/07/29 08:38:46;;;;;;;11.23;3.47;;;18.50;99.90;;;;;;5074321;28;25112;-65
2021/07/29 08:41:14;;;;;;;13.93;3.83;;;18.70;99.90;;;;;;5050049;28;25074;-68
2021/07/29 08:43:40;;;;;;;19.15;3.63;;;18.60;99.90;;;;;;5056320;28;25077;-66
2021/07/29 08:46:07;;;;;;;23.33;3.50;;;18.60;99.90;;;;;;5072692;28;25071;-68
2021/07/29 08:48:35;;;;;;;11.20;2.88;;;18.60;99.90;;;;;;5062922;28;25059;-66
2021/07/29 08:51:01;;;;;;;10.55;3.22;;;18.80;99.90;;;;;;5061898;28;25064;-67
2021/07/29 08:53:26;;;;;;;10.15;2.53;;;19.00;99.90;;;;;;5066298;28;25060;-67
2021/07/29 08:55:53;;;;;;;10.30;3.45;;;19.10;99.90;;;;;;5057930;28;25062;-65
2021/07/29 08:58:19;;;;;;;12.40;2.92;;;19.40;99.90;;;;;;5066766;28;25137;-67
2021/07/29 09:01:06;;;;;;;13.18;3.13;;;19.30;99.90;;;;;;5067709;28;25081;-66
2021/07/29 09:03:33;;;;;;;15.18;3.25;;;19.20;99.90;;;;;;5064321;28;25066;-68
2021/07/29 09:06:10;;;;;;;10.95;2.97;;;19.00;99.90;;;;;;5066192;28;25111;-67
2021/07/29 09:08:46;;;;;;;17.05;2.90;;;18.60;99.90;;;;;;5067905;28;25081;-66
2021/07/29 09:11:32;;;;;;;9.73;2.53;;;18.50;99.90;;;;;;5072435;28;25078;-67
2021/07/29 09:14:06;;;;;;;12.27;2.70;;;18.70;99.90;;;;;;5061833;28;25059;-65
2021/07/29 09:16:37;;;;;;;16.70;3.70;;;18.70;99.90;;;;;;5062949;28;25062;-66
2021/07/29 09:19:04;;;;;;;15.13;3.95;;;18.60;99.90;;;;;;5061474;28;25149;-65
2021/07/29 09:21:30;;;;;;;16.80;5.53;;;17.90;99.90;;;;;;5064334;28;25076;-66
2021/07/29 09:24:10;;;;;;;18.00;6.38;;;17.60;99.90;;;;;;5065415;28;25070;-65
2021/07/29 09:26:56;;;;;;;12.65;4.50;;;17.30;99.90;;;;;;5068185;28;25060;-65
2021/07/29 09:29:24;;;;;;;13.90;4.63;;;17.20;99.90;;;;;;5059211;28;25073;-67
2021/07/29 09:32:22;;;;;;;17.38;4.72;;;17.10;99.90;;;;;;5083091;28;25057;-65
2021/07/29 09:34:50;;;;;;;20.05;5.03;;;16.90;99.90;;;;;;5037853;28;25070;-66
2021/07/29 09:37:16;;;;;;;13.55;4.95;;;16.90;99.90;;;;;;5055239;28;25076;-66
2021/07/29 09:39:43;;;;;;;12.75;4.95;;;17.00;99.90;;;;;;5073375;28;25120;-66
2021/07/29 09:42:21;;;;;;;16.05;5.05;;;17.00;99.90;;;;;;5068138;28;25069;-66
2021/07/29 09:44:49;;;;;;;16.48;4.45;;;17.00;99.90;;;;;;5060831;28;25074;-66
2021/07/29 09:47:17;;;;;;;18.85;5.90;;;17.10;99.90;;;;;;5065932;28;25059;-65
2021/07/29 09:49:43;;;;;;;12.73;4.65;;;17.20;99.90;;;;;;5070568;28;25069;-66
2021/07/29 09:52:09;;;;;;;17.33;5.40;;;17.30;99.90;;;;;;5066091;28;25063;-66
2021/07/29 09:54:40;;;;;;;10.85;4.60;;;17.50;99.90;;;;;;5074658;28;25152;-66
2021/07/29 09:57:07;;;;;;;10.73;4.32;;;17.70;99.90;;;;;;5066080;28;25065;-64
2021/07/29 09:59:33;;;;;;;11.45;2.88;;;17.90;99.90;;;;;;5071339;28;25111;-66
2021/07/29 10:02:01;;;;;;;11.07;3.47;;;18.00;99.90;;;;;;5075177;28;25089;-66
2021/07/29 10:04:36;;;;;;;14.48;3.20;;;18.00;99.90;;;;;;5070592;28;25071;-67
2021/07/29 10:07:07;;;;;;;14.13;3.42;;;18.10;99.90;;;;;;5067328;28;25054;-67
2021/07/29 10:09:38;;;;;;;9.75;3.60;;;18.10;99.90;;;;;;5067500;28;25167;-67
2021/07/29 10:12:05;;;;;;;9.38;3.25;;;18.30;99.90;;;;;;5064386;28;25048;-66
2021/07/29 10:14:51;;;;;;;12.45;3.78;;;18.60;99.90;;;;;;5062126;28;25066;-67
2021/07/29 10:17:17;;;;;;;11.98;3.20;;;18.40;99.90;;;;;;5064192;28;25076;-66
2021/07/29 10:20:15;;;;;;;17.60;4.53;;;18.20;99.90;;;;;;5077511;28;25095;-67
2021/07/29 10:22:42;;;;;;;16.20;3.88;;;18.10;99.90;;;;;;5066299;28;25087;-66
2021/07/29 10:25:08;;;;;;;12.18;3.45;;;18.10;99.90;;;;;;5068976;28;25087;-66
2021/07/29 10:27:34;;;;;;;12.10;3.53;;;18.00;99.90;;;;;;5066035;28;25051;-65
2021/07/29 10:30:18;;;;;;;14.35;4.72;;;18.00;99.90;;;;;;5067606;28;25067;-66
2021/07/29 10:32:47;;;;;;;15.45;4.40;;;18.10;99.90;;;;;;5065405;28;25165;-65
2021/07/29 10:35:36;;;;;;;17.05;3.95;;;18.10;99.90;;;;;;5058312;28;25056;-64
2021/07/29 10:38:02;;;;;;;14.40;4.28;;;18.20;99.90;;;;;;5057242;28;25108;-65
2021/07/29 10:40:35;;;;;;;16.60;4.55;;;18.20;99.90;;;;;;5071410;28;25097;-68
2021/07/29 10:43:33;;;;;;;16.25;3.65;;;18.10;99.90;;;;;;5053871;28;25111;-69
2021/07/29 10:46:02;;;;;;;13.43;3.88;;;18.10;99.90;;;;;;5031399;28;25059;-67
2021/07/29 10:48:51;;;;;;;12.10;3.65;;;18.20;99.90;;;;;;5073360;28;25162;-66
2021/07/29 10:51:24;;;;;;;19.30;4.47;;;18.20;99.90;;;;;;5070054;28;25081;-66
2021/07/29 10:53:56;;;;;;;13.30;3.88;;;18.10;99.90;;;;;;5064464;28;25065;-65
2021/07/29 10:56:22;;;;;;;;;;;18.00;99.90;;;;;;5079898;28;25095;-64
2021/07/29 10:58:50;;;;;;;18.73;4.20;;;18.10;99.90;;;;;;5063641;28;24169;-65
2021/07/29 11:01:16;;;;;;;11.55;3.70;;;18.10;99.90;;;;;;5069860;28;25114;-66
2021/07/29 11:03:53;;;;;;;14.40;3.88;;;18.20;99.90;;;;;;5080149;28;25088;-66
2021/07/29 11:06:41;;;;;;;16.40;3.80;;;18.40;99.90;;;;;;5071330;28;25133;-67
2021/07/29 11:09:18;;;;;;;16.13;4.15;;;18.60;99.90;;;;;;5071347;28;25065;-66
2021/07/29 11:11:46;;;;;;;16.08;2.97;;;18.70;99.90;;;;;;5069950;28;25145;-65
2021/07/29 11:14:13;;;;;;;13.35;4.05;;;18.60;99.90;;;;;;5059786;28;25118;-66
2021/07/29 11:16:39;;;;;;;12.75;3.33;;;18.60;99.90;;;;;;5067749;28;25094;-69
2021/07/29 11:19:06;;;;;;;18.73;3.85;;;18.70;99.90;;;;;;5067994;28;25062;-67
2021/07/29 11:21:34;;;;;;;15.15;3.72;;;18.60;99.90;;;;;;5069497;28;25130;-66
2021/07/29 11:23:59;;;;;;;17.83;3.63;;;18.40;99.90;;;;;;5080168;28;25098;-65
2021/07/29 11:26:26;;;;;;;19.20;4.35;;;18.40;99.90;;;;;;5068820;28;25134;-66
2021/07/29 11:29:21;;;;;;;11.63;3.40;;;18.60;99.90;;;;;;5080730;28;25056;-66
2021/07/29 11:31:51;;;;;;;18.85;3.85;;;19.00;99.90;;;;;;5036320;28;25070;-66
2021/07/29 11:34:16;;;;;;;13.65;3.38;;;19.20;99.90;;;;;;5070779;28;25140;-64
2021/07/29 11:36:52;;;;;;;16.25;3.35;;;19.50;99.90;;;;;;5060716;28;25110;-68
2021/07/29 11:39:17;;;;;;;16.15;3.90;;;19.80;99.90;;;;;;5059142;28;25059;-67
2021/07/29 11:41:51;;;;;;;13.88;3.42;;;19.80;99.90;;;;;;5069055;28;25112;-68
2021/07/29 11:44:17;;;;;;;15.27;3.30;;;20.00;99.90;;;;;;5062220;28;25063;-67
2021/07/29 11:46:57;;;;;;;16.55;4.57;;;20.20;99.90;;;;;;5065772;28;25070;-69
2021/07/29 11:49:23;;;;;;;18.20;3.30;;;20.40;99.90;;;;;;5068289;28;25064;-67
2021/07/29 11:52:22;;;;;;;10.10;3.03;;;20.30;99.90;;;;;;5055366;28;25070;-65
2021/07/29 11:54:48;;;;;;;11.10;3.90;;;20.20;99.90;;;;;;5012843;28;25113;-66
2021/07/29 11:57:27;;;;;;;10.18;2.90;;;20.30;99.90;;;;;;5068393;28;25070;-67
2021/07/29 11:59:54;;;;;;;10.93;2.78;;;20.70;99.90;;;;;;5061984;28;25074;-68
2021/07/29 12:02:22;;;;;;;14.27;3.38;;;20.70;99.90;;;;;;5071640;28;25096;-67
2021/07/29 12:04:48;;;;;;;12.38;2.33;;;20.70;99.90;;;;;;5067704;28;25078;-66
2021/07/29 12:07:15;;;;;;;13.30;2.88;;;20.90;99.90;;;;;;5070449;28;25101;-66
2021/07/29 12:09:43;;;;;;;11.48;2.92;;;21.00;99.90;;;;;;5066523;28;25057;-66
2021/07/29 12:12:10;;;;;;;13.82;2.47;;;21.00;99.90;;;;;;5072540;28;25068;-67
2021/07/29 12:14:36;;;;;;;19.77;3.08;;;20.80;99.90;;;;;;5072565;28;25057;-67
2021/07/29 12:17:02;;;;;;;15.27;3.25;;;20.80;99.90;;;;;;5069836;28;25072;-67
2021/07/29 12:19:28;;;;;;;16.80;3.47;;;21.00;99.90;;;;;;5068113;28;25070;-67
2021/07/29 12:21:55;;;;;;;16.13;3.60;;;21.10;99.90;;;;;;5067855;28;25079;-69
2021/07/29 12:24:21;;;;;;;12.00;3.70;;;21.30;99.90;;;;;;5067528;28;25058;-66
2021/07/29 12:27:09;;;;;;;12.30;2.58;;;21.00;99.90;;;;;;5071191;28;25107;-67
2021/07/29 12:29:39;;;;;;;14.18;2.80;;;20.90;99.90;;;;;;5067658;28;25149;-67
2021/07/29 12:32:16;;;;;;;16.83;3.88;;;20.80;99.90;;;;;;5074538;28;25149;-66
2021/07/29 12:34:41;;;;;;;17.63;3.60;;;20.90;99.90;;;;;;5065824;28;25070;-65
2021/07/29 12:37:07;;;;;;;14.15;3.08;;;21.00;99.90;;;;;;5061030;28;25073;-66
2021/07/29 12:39:33;;;;;;;13.43;3.03;;;21.00;99.90;;;;;;5068562;28;25089;-66
2021/07/29 12:41:59;;;;;;;9.02;2.50;;;21.00;99.90;;;;;;5066567;28;25096;-65
2021/07/29 12:44:25;;;;;;;15.50;2.63;;;21.40;99.90;;;;;;5058208;28;25100;-67